sensor_id;sensor_type;location;lat;lon;timestamp;pressure;altitude;pressure_sealevel;temperature;humidity
33163;BME280;29282;45.656;11.302;2023-12-20T00:01:46;98413.41;;;18.96;42.13
33163;BME280;29282;45.656;11.302;2023-12-20T00:04:11;98412.63;;;18.95;42.03
33163;BME280;29282;45.656;11.302;2023-12-20T00:06:37;98412.63;;;18.95;42.03
33163;BME280;29282;45.656;11.302;2023-12-20T00:09:02;98411.34;;;18.93;42.18
33163;BME280;29282;45.656;11.302;2023-12-20T00:11:28;98403.91;;;18.93;42.12
33163;BME280;29282;45.656;11.302;2023-12-20T00:13:53;98398.75;;;18.92;41.94
33163;BME280;29282;45.656;11.302;2023-12-20T00:16:19;98383.44;;;18.91;41.58
33163;BME280;29282;45.656;11.302;2023-12-20T00:18:44;98382.16;;;18.88;41.99
33163;BME280;29282;45.656;11.302;2023-12-20T00:21:11;98391.19;;;18.89;41.76
33163;BME280;29282;45.656;11.302;2023-12-20T00:23:37;98380.22;;;18.89;41.37
33163;BME280;29282;45.656;11.302;2023-12-20T00:26:02;98380.53;;;18.87;41.78
33163;BME280;29282;45.656;11.302;2023-12-20T00:28:28;98373.13;;;18.88;41.63
33163;BME280;29282;45.656;11.302;2023-12-20T00:30:53;98368.44;;;18.88;41.68
33163;BME280;29282;45.656;11.302;2023-12-20T00:33:19;98364.41;;;18.86;41.50
33163;BME280;29282;45.656;11.302;2023-12-20T00:35:44;98365.22;;;18.86;41.49
33163;BME280;29282;45.656;11.302;2023-12-20T00:38:10;98364.06;;;18.87;41.23
33163;BME280;29282;45.656;11.302;2023-12-20T00:40:36;98359.84;;;18.90;41.10
33163;BME280;29282;45.656;11.302;2023-12-20T00:43:02;98357.44;;;18.88;41.18
33163;BME280;29282;45.656;11.302;2023-12-20T00:45:27;98350.50;;;18.91;41.42
33163;BME280;29282;45.656;11.302;2023-12-20T00:47:53;98339.50;;;18.91;41.09
33163;BME280;29282;45.656;11.302;2023-12-20T00:50:18;98342.59;;;18.89;41.42
33163;BME280;29282;45.656;11.302;2023-12-20T00:52:44;98334.03;;;18.91;40.89
33163;BME280;29282;45.656;11.302;2023-12-20T00:55:10;98339.97;;;18.93;40.80
33163;BME280;29282;45.656;11.302;2023-12-20T00:57:35;98329.34;;;18.91;40.49
33163;BME280;29282;45.656;11.302;2023-12-20T01:00:01;98326.25;;;18.93;40.68
33163;BME280;29282;45.656;11.302;2023-12-20T01:02:26;98327.03;;;18.93;40.60
33163;BME280;29282;45.656;11.302;2023-12-20T01:04:52;98325.78;;;18.91;40.79
33163;BME280;29282;45.656;11.302;2023-12-20T01:07:17;98319.94;;;18.92;40.43
33163;BME280;29282;45.656;11.302;2023-12-20T01:09:43;98320.06;;;18.96;40.40
33163;BME280;29282;45.656;11.302;2023-12-20T01:12:08;98318.47;;;18.95;40.37
33163;BME280;29282;45.656;11.302;2023-12-20T01:14:34;98320.75;;;18.93;41.10
33163;BME280;29282;45.656;11.302;2023-12-20T01:16:59;98322.22;;;18.90;40.90
33163;BME280;29282;45.656;11.302;2023-12-20T01:19:25;98326.25;;;18.93;40.20
33163;BME280;29282;45.656;11.302;2023-12-20T01:21:52;98314.09;;;18.94;40.49
33163;BME280;29282;45.656;11.302;2023-12-20T01:24:17;98316.06;;;18.93;40.59
33163;BME280;29282;45.656;11.302;2023-12-20T01:26:43;98312.97;;;18.95;40.09
33163;BME280;29282;45.656;11.302;2023-12-20T01:29:08;98311.84;;;18.96;40.24
33163;BME280;29282;45.656;11.302;2023-12-20T01:31:34;98314.47;;;18.92;40.90
33163;BME280;29282;45.656;11.302;2023-12-20T01:33:59;98305.19;;;18.97;40.61
33163;BME280;29282;45.656;11.302;2023-12-20T01:36:25;98311.16;;;18.99;40.55
33163;BME280;29282;45.656;11.302;2023-12-20T01:38:50;98306.03;;;18.97;39.83
33163;BME280;29282;45.656;11.302;2023-12-20T01:41:16;98313.78;;;18.95;40.16
33163;BME280;29282;45.656;11.302;2023-12-20T01:43:41;98306.34;;;18.96;39.79
33163;BME280;29282;45.656;11.302;2023-12-20T01:46:07;98302.31;;;18.93;40.29
33163;BME280;29282;45.656;11.302;2023-12-20T01:48:33;98296.50;;;18.95;40.48
33163;BME280;29282;45.656;11.302;2023-12-20T01:50:59;98301.19;;;18.94;39.96
33163;BME280;29282;45.656;11.302;2023-12-20T01:53:26;98298.47;;;18.94;40.36
33163;BME280;29282;45.656;11.302;2023-12-20T01:55:55;98282.97;;;18.90;40.05
33163;BME280;29282;45.656;11.302;2023-12-20T01:58:22;98285.06;;;18.93;39.70
33163;BME280;29282;45.656;11.302;2023-12-20T02:00:49;98279.25;;;18.94;39.68
33163;BME280;29282;45.656;11.302;2023-12-20T02:03:15;98278.41;;;18.94;39.70
33163;BME280;29282;45.656;11.302;2023-12-20T02:05:42;98275.22;;;18.92;40.34
33163;BME280;29282;45.656;11.302;2023-12-20T02:08:07;98271.19;;;18.89;40.73
33163;BME280;29282;45.656;11.302;2023-12-20T02:10:37;98266.50;;;18.90;40.18
33163;BME280;29282;45.656;11.302;2023-12-20T02:13:05;98266.38;;;18.86;40.35
33163;BME280;29282;45.656;11.302;2023-12-20T02:15:33;98266.63;;;18.93;40.32
33163;BME280;29282;45.656;11.302;2023-12-20T02:17:59;98260.69;;;18.91;39.34
33163;BME280;29282;45.656;11.302;2023-12-20T02:20:24;98261.50;;;18.92;39.72
33163;BME280;29282;45.656;11.302;2023-12-20T02:22:50;98255.22;;;18.91;39.39
33163;BME280;29282;45.656;11.302;2023-12-20T02:25:18;98254.41;;;18.91;39.47
33163;BME280;29282;45.656;11.302;2023-12-20T02:27:44;98253.94;;;18.89;40.21
33163;BME280;29282;45.656;11.302;2023-12-20T02:30:10;98242.94;;;18.89;39.40
33163;BME280;29282;45.656;11.302;2023-12-20T02:32:35;98246.72;;;18.84;40.00
33163;BME280;29282;45.656;11.302;2023-12-20T02:35:01;98246.03;;;18.87;39.66
33163;BME280;29282;45.656;11.302;2023-12-20T02:37:26;98240.09;;;18.85;40.20
33163;BME280;29282;45.656;11.302;2023-12-20T02:39:51;98242.94;;;18.89;39.64
33163;BME280;29282;45.656;11.302;2023-12-20T02:42:17;98236.31;;;18.90;39.36
33163;BME280;29282;45.656;11.302;2023-12-20T02:44:42;98239.84;;;18.90;39.39
33163;BME280;29282;45.656;11.302;2023-12-20T02:47:08;98229.56;;;18.87;39.38
33163;BME280;29282;45.656;11.302;2023-12-20T02:49:37;98229.56;;;18.87;39.18
33163;BME280;29282;45.656;11.302;2023-12-20T02:52:02;98219.72;;;18.86;39.98
33163;BME280;29282;45.656;11.302;2023-12-20T02:54:28;98221.00;;;18.89;39.02
33163;BME280;29282;45.656;11.302;2023-12-20T02:56:53;98219.59;;;18.83;39.58
33163;BME280;29282;45.656;11.302;2023-12-20T02:59:21;98217.78;;;18.87;39.11
33163;BME280;29282;45.656;11.302;2023-12-20T03:01:47;98213.09;;;18.87;39.19
33163;BME280;29282;45.656;11.302;2023-12-20T03:04:12;98210.47;;;18.91;38.91
33163;BME280;29282;45.656;11.302;2023-12-20T03:06:38;98213.22;;;18.91;38.75
33163;BME280;29282;45.656;11.302;2023-12-20T03:09:04;98208.41;;;18.88;38.89
33163;BME280;29282;45.656;11.302;2023-12-20T03:11:29;98213.91;;;18.88;39.21
33163;BME280;29282;45.656;11.302;2023-12-20T03:13:56;98203.59;;;18.85;39.30
33163;BME280;29282;45.656;11.302;2023-12-20T03:16:21;98200.75;;;18.81;40.00
33163;BME280;29282;45.656;11.302;2023-12-20T03:18:47;98197.16;;;18.81;39.60
33163;BME280;29282;45.656;11.302;2023-12-20T03:21:12;98192.03;;;18.79;39.92
33163;BME280;29282;45.656;11.302;2023-12-20T03:23:38;98189.75;;;18.81;39.71
33163;BME280;29282;45.656;11.302;2023-12-20T03:26:07;98181.41;;;18.77;39.45
33163;BME280;29282;45.656;11.302;2023-12-20T03:28:33;98178.34;;;18.70;39.31
33163;BME280;29282;45.656;11.302;2023-12-20T03:30:58;98174.91;;;18.61;39.55
33163;BME280;29282;45.656;11.302;2023-12-20T03:33:27;98166.41;;;18.54;40.17
33163;BME280;29282;45.656;11.302;2023-12-20T03:35:52;98170.97;;;18.50;40.34
33163;BME280;29282;45.656;11.302;2023-12-20T03:38:21;98169.72;;;18.47;40.68
33163;BME280;29282;45.656;11.302;2023-12-20T03:40:49;98163.78;;;18.45;41.00
33163;BME280;29282;45.656;11.302;2023-12-20T03:47:35;98164.31;;;18.39;41.31
33163;BME280;29282;45.656;11.302;2023-12-20T03:50:00;98161.91;;;18.37;41.29
33163;BME280;29282;45.656;11.302;2023-12-20T03:52:26;98148.53;;;18.36;41.47
33163;BME280;29282;45.656;11.302;2023-12-20T03:54:51;98152.44;;;18.35;41.64
33163;BME280;29282;45.656;11.302;2023-12-20T03:57:17;98146.94;;;18.35;41.63
33163;BME280;29282;45.656;11.302;2023-12-20T03:59:42;98144.53;;;18.33;41.84
33163;BME280;29282;45.656;11.302;2023-12-20T04:02:08;98142.91;;;18.32;41.73
33163;BME280;29282;45.656;11.302;2023-12-20T04:04:33;98146.81;;;18.31;41.93
33163;BME280;29282;45.656;11.302;2023-12-20T04:06:59;98137.75;;;18.30;41.99
33163;BME280;29282;45.656;11.302;2023-12-20T04:09:24;98136.50;;;18.28;42.18
33163;BME280;29282;45.656;11.302;2023-12-20T04:11:49;98140.06;;;18.28;42.11
33163;BME280;29282;45.656;11.302;2023-12-20T04:14:15;98132.63;;;18.29;42.00
33163;BME280;29282;45.656;11.302;2023-12-20T04:16:40;98128.59;;;18.26;42.37
33163;BME280;29282;45.656;11.302;2023-12-20T04:19:06;98125.06;;;18.26;42.32
33163;BME280;29282;45.656;11.302;2023-12-20T04:21:31;98122.66;;;18.24;42.51
33163;BME280;29282;45.656;11.302;2023-12-20T04:23:57;98121.84;;;18.24;42.32
33163;BME280;29282;45.656;11.302;2023-12-20T04:26:22;98118.31;;;18.23;42.47
33163;BME280;29282;45.656;11.302;2023-12-20T04:28:48;98113.97;;;18.22;42.58
33163;BME280;29282;45.656;11.302;2023-12-20T04:31:13;98117.88;;;18.21;42.54
33163;BME280;29282;45.656;11.302;2023-12-20T04:33:39;98114.28;;;18.21;42.58
33163;BME280;29282;45.656;11.302;2023-12-20T04:36:05;98116.25;;;18.20;42.66
33163;BME280;29282;45.656;11.302;2023-12-20T04:38:30;98109.97;;;18.20;42.74
33163;BME280;29282;45.656;11.302;2023-12-20T04:40:56;98118.97;;;18.20;42.77
33163;BME280;29282;45.656;11.302;2023-12-20T04:43:21;98120.94;;;18.20;42.85
33163;BME280;29282;45.656;11.302;2023-12-20T04:45:47;98113.84;;;18.19;42.92
33163;BME280;29282;45.656;11.302;2023-12-20T04:48:12;98120.13;;;18.19;42.91
33163;BME280;29282;45.656;11.302;2023-12-20T04:50:41;98110.31;;;18.18;42.91
33163;BME280;29282;45.656;11.302;2023-12-20T04:53:07;98099.34;;;18.18;42.81
33163;BME280;29282;45.656;11.302;2023-12-20T04:55:32;98104.00;;;18.18;42.93
33163;BME280;29282;45.656;11.302;2023-12-20T04:57:58;98091.44;;;18.17;43.00
33163;BME280;29282;45.656;11.302;2023-12-20T05:00:24;98078.88;;;18.16;43.19
33163;BME280;29282;45.656;11.302;2023-12-20T05:02:52;98076.13;;;18.16;43.07
33163;BME280;29282;45.656;11.302;2023-12-20T05:05:18;98088.69;;;18.17;43.05
33163;BME280;29282;45.656;11.302;2023-12-20T05:07:43;98092.22;;;18.17;43.21
33163;BME280;29282;45.656;11.302;2023-12-20T05:10:12;98084.34;;;18.16;43.18
33163;BME280;29282;45.656;11.302;2023-12-20T05:12:37;98089.06;;;18.15;43.28
33163;BME280;29282;45.656;11.302;2023-12-20T05:15:05;98093.38;;;18.16;43.36
33163;BME280;29282;45.656;11.302;2023-12-20T05:17:31;98097.59;;;18.14;43.25
33163;BME280;29282;45.656;11.302;2023-12-20T05:19:56;98093.72;;;18.15;43.35
33163;BME280;29282;45.656;11.302;2023-12-20T05:22:21;98092.91;;;18.14;43.41
33163;BME280;29282;45.656;11.302;2023-12-20T05:24:50;98096.00;;;18.13;43.36
33163;BME280;29282;45.656;11.302;2023-12-20T05:27:15;98097.16;;;18.12;43.29
33163;BME280;29282;45.656;11.302;2023-12-20T05:29:41;98095.53;;;18.11;43.35
33163;BME280;29282;45.656;11.302;2023-12-20T05:32:06;98091.97;;;18.10;43.46
33163;BME280;29282;45.656;11.302;2023-12-20T05:34:35;98088.44;;;18.10;43.42
33163;BME280;29282;45.656;11.302;2023-12-20T05:37:00;98085.22;;;18.07;43.48
33163;BME280;29282;45.656;11.302;2023-12-20T05:39:27;98085.22;;;18.07;43.47
33163;BME280;29282;45.656;11.302;2023-12-20T05:41:52;98086.38;;;18.06;43.47
33163;BME280;29282;45.656;11.302;2023-12-20T05:44:17;98084.09;;;18.08;43.66
33163;BME280;29282;45.656;11.302;2023-12-20T05:46:43;98077.84;;;18.08;43.68
33163;BME280;29282;45.656;11.302;2023-12-20T05:49:09;98080.56;;;18.08;43.51
33163;BME280;29282;45.656;11.302;2023-12-20T05:51:36;98068.78;;;18.07;43.50
33163;BME280;29282;45.656;11.302;2023-12-20T05:54:01;98069.59;;;18.08;43.61
33163;BME280;29282;45.656;11.302;2023-12-20T05:56:27;98069.59;;;18.08;43.71
33163;BME280;29282;45.656;11.302;2023-12-20T05:58:52;98081.03;;;18.10;43.78
33163;BME280;29282;45.656;11.302;2023-12-20T06:01:18;98073.94;;;18.09;43.73
33163;BME280;29282;45.656;11.302;2023-12-20T06:03:43;98078.75;;;18.12;43.69
33163;BME280;29282;45.656;11.302;2023-12-20T06:06:09;98078.66;;;18.21;43.65
33163;BME280;29282;45.656;11.302;2023-12-20T06:08:36;98070.81;;;18.31;43.30
33163;BME280;29282;45.656;11.302;2023-12-20T06:11:01;98080.00;;;18.48;42.88
33163;BME280;29282;45.656;11.302;2023-12-20T06:13:27;98073.72;;;18.60;42.68
33163;BME280;29282;45.656;11.302;2023-12-20T06:15:54;98071.22;;;18.67;42.75
33163;BME280;29282;45.656;11.302;2023-12-20T06:18:20;98068.59;;;18.70;42.60
33163;BME280;29282;45.656;11.302;2023-12-20T06:20:45;98063.38;;;18.77;42.53
33163;BME280;29282;45.656;11.302;2023-12-20T06:23:11;98068.50;;;18.79;42.63
33163;BME280;29282;45.656;11.302;2023-12-20T06:25:37;98065.41;;;18.81;42.47
33163;BME280;29282;45.656;11.302;2023-12-20T06:28:02;98055.81;;;18.87;42.58
33163;BME280;29282;45.656;11.302;2023-12-20T06:30:28;98046.00;;;18.86;42.68
33163;BME280;29282;45.656;11.302;2023-12-20T06:32:57;98049.19;;;18.88;42.64
33163;BME280;29282;45.656;11.302;2023-12-20T06:35:23;98058.34;;;18.92;42.66
33163;BME280;29282;45.656;11.302;2023-12-20T06:37:48;98051.59;;;18.89;42.69
33163;BME280;29282;45.656;11.302;2023-12-20T06:40:14;98053.75;;;18.96;42.68
33163;BME280;29282;45.656;11.302;2023-12-20T06:42:39;98059.25;;;18.96;42.76
33163;BME280;29282;45.656;11.302;2023-12-20T06:45:05;98053.75;;;18.96;42.75
33163;BME280;29282;45.656;11.302;2023-12-20T06:47:30;98042.09;;;18.99;42.71
33163;BME280;29282;45.656;11.302;2023-12-20T06:49:56;98044.38;;;18.97;42.73
33163;BME280;29282;45.656;11.302;2023-12-20T06:52:21;98048.38;;;18.99;42.73
33163;BME280;29282;45.656;11.302;2023-12-20T06:54:47;98051.94;;;19.00;42.73
33163;BME280;29282;45.656;11.302;2023-12-20T06:57:13;98057.41;;;19.00;42.72
33163;BME280;29282;45.656;11.302;2023-12-20T06:59:39;98045.19;;;18.97;42.84
33163;BME280;29282;45.656;11.302;2023-12-20T07:02:05;98048.75;;;18.98;42.78
33163;BME280;29282;45.656;11.302;2023-12-20T07:04:30;98044.47;;;19.00;42.83
33163;BME280;29282;45.656;11.302;2023-12-20T07:06:56;98044.16;;;19.02;42.84
33163;BME280;29282;45.656;11.302;2023-12-20T07:09:25;98047.38;;;19.04;42.79
33163;BME280;29282;45.656;11.302;2023-12-20T07:11:51;98046.66;;;19.07;42.84
33163;BME280;29282;45.656;11.302;2023-12-20T07:14:17;98050.34;;;19.11;42.51
33163;BME280;29282;45.656;11.302;2023-12-20T07:16:42;98047.22;;;19.13;42.77
33163;BME280;29282;45.656;11.302;2023-12-20T07:19:08;98043.78;;;19.16;42.66
33163;BME280;29282;45.656;11.302;2023-12-20T07:21:33;98042.53;;;19.13;42.77
33163;BME280;29282;45.656;11.302;2023-12-20T07:23:59;98051.72;;;19.17;42.72
33163;BME280;29282;45.656;11.302;2023-12-20T07:26:24;98057.31;;;19.21;42.61
33163;BME280;29282;45.656;11.302;2023-12-20T07:28:50;98059.59;;;19.19;42.71
33163;BME280;29282;45.656;11.302;2023-12-20T07:31:16;98062.81;;;19.21;42.65
33163;BME280;29282;45.656;11.302;2023-12-20T07:33:42;98060.06;;;19.21;42.78
33163;BME280;29282;45.656;11.302;2023-12-20T07:36:07;98074.91;;;19.20;43.00
33163;BME280;29282;45.656;11.302;2023-12-20T07:38:33;98076.88;;;19.19;43.25
33163;BME280;29282;45.656;11.302;2023-12-20T07:40:59;98077.06;;;19.27;43.28
33163;BME280;29282;45.656;11.302;2023-12-20T07:43:24;98077.44;;;19.25;43.26
33163;BME280;29282;45.656;11.302;2023-12-20T07:45:50;98079.03;;;19.26;43.26
33163;BME280;29282;45.656;11.302;2023-12-20T07:48:15;98072.75;;;19.25;43.34
33163;BME280;29282;45.656;11.302;2023-12-20T07:50:41;98077.91;;;19.27;43.35
33163;BME280;29282;45.656;11.302;2023-12-20T07:53:07;98075.03;;;19.23;43.44
33163;BME280;29282;45.656;11.302;2023-12-20T07:55:33;98082.56;;;19.27;43.62
33163;BME280;29282;45.656;11.302;2023-12-20T07:58:00;98080.66;;;19.27;43.62
33163;BME280;29282;45.656;11.302;2023-12-20T08:00:25;98094.38;;;19.27;43.65
33163;BME280;29282;45.656;11.302;2023-12-20T08:02:51;98098.38;;;19.30;43.61
33163;BME280;29282;45.656;11.302;2023-12-20T08:05:16;98096.56;;;19.34;43.53
33163;BME280;29282;45.656;11.302;2023-12-20T08:07:42;98103.38;;;19.40;43.67
33163;BME280;29282;45.656;11.302;2023-12-20T08:10:08;98104.06;;;19.37;43.64
33163;BME280;29282;45.656;11.302;2023-12-20T08:12:33;98109.94;;;19.35;43.57
33163;BME280;29282;45.656;11.302;2023-12-20T08:14:59;98116.00;;;19.41;43.48
33163;BME280;29282;45.656;11.302;2023-12-20T08:17:25;98105.81;;;19.41;43.46
33163;BME280;29282;45.656;11.302;2023-12-20T08:19:51;98104.75;;;19.46;43.26
33163;BME280;29282;45.656;11.302;2023-12-20T08:22:17;98103.06;;;19.41;43.41
33163;BME280;29282;45.656;11.302;2023-12-20T08:24:42;98101.78;;;19.39;43.42
33163;BME280;29282;45.656;11.302;2023-12-20T08:27:08;98099.63;;;19.44;43.42
33163;BME280;29282;45.656;11.302;2023-12-20T08:29:34;98096.41;;;19.42;43.48
33163;BME280;29282;45.656;11.302;2023-12-20T08:32:00;98099.50;;;19.41;43.52
33163;BME280;29282;45.656;11.302;2023-12-20T08:34:26;98101.31;;;19.37;43.64
33163;BME280;29282;45.656;11.302;2023-12-20T08:36:51;98101.78;;;19.39;43.61
33163;BME280;29282;45.656;11.302;2023-12-20T08:39:17;98091.50;;;19.36;43.55
33163;BME280;29282;45.656;11.302;2023-12-20T08:41:42;98092.53;;;19.31;43.78
33163;BME280;29282;45.656;11.302;2023-12-20T08:44:08;98094.13;;;19.32;43.82
33163;BME280;29282;45.656;11.302;2023-12-20T08:46:34;98093.66;;;19.30;43.81
33163;BME280;29282;45.656;11.302;2023-12-20T08:49:00;98104.53;;;19.27;43.85
33163;BME280;29282;45.656;11.302;2023-12-20T08:51:26;98104.53;;;19.27;43.88
33163;BME280;29282;45.656;11.302;2023-12-20T08:53:53;98104.53;;;19.27;43.89
33163;BME280;29282;45.656;11.302;2023-12-20T08:56:18;98089.22;;;19.25;43.84
33163;BME280;29282;45.656;11.302;2023-12-20T08:58:45;98098.94;;;19.23;43.93
33163;BME280;29282;45.656;11.302;2023-12-20T09:01:11;98107.97;;;19.23;43.82
33163;BME280;29282;45.656;11.302;2023-12-20T09:03:37;98109.50;;;19.21;43.99
33163;BME280;29282;45.656;11.302;2023-12-20T09:06:03;98099.75;;;19.23;43.89
33163;BME280;29282;45.656;11.302;2023-12-20T09:08:28;98097.34;;;19.22;44.10
33163;BME280;29282;45.656;11.302;2023-12-20T09:10:54;98105.94;;;19.20;44.02
33163;BME280;29282;45.656;11.302;2023-12-20T09:13:19;98095.66;;;19.17;44.15
33163;BME280;29282;45.656;11.302;2023-12-20T09:15:46;98095.66;;;19.17;44.14
33163;BME280;29282;45.656;11.302;2023-12-20T09:18:11;98091.28;;;19.16;44.14
33163;BME280;29282;45.656;11.302;2023-12-20T09:20:37;98092.44;;;19.15;44.10
33163;BME280;29282;45.656;11.302;2023-12-20T09:23:03;98085.34;;;19.14;44.12
33163;BME280;29282;45.656;11.302;2023-12-20T09:25:31;98090.00;;;19.14;44.20
33163;BME280;29282;45.656;11.302;2023-12-20T09:27:57;98080.19;;;19.13;44.26
33163;BME280;29282;45.656;11.302;2023-12-20T09:30:22;98080.06;;;19.09;44.31
33163;BME280;29282;45.656;11.302;2023-12-20T09:32:48;98078.13;;;19.10;44.42
33163;BME280;29282;45.656;11.302;2023-12-20T09:35:13;98073.78;;;19.09;44.14
33163;BME280;29282;45.656;11.302;2023-12-20T09:37:40;98060.38;;;19.07;44.28
33163;BME280;29282;45.656;11.302;2023-12-20T09:40:11;98057.31;;;19.09;44.34
33163;BME280;29282;45.656;11.302;2023-12-20T09:42:51;98072.19;;;19.08;44.27
33163;BME280;29282;45.656;11.302;2023-12-20T09:45:20;98068.63;;;19.07;44.27
33163;BME280;29282;45.656;11.302;2023-12-20T09:47:53;98054.44;;;19.05;44.38
33163;BME280;29282;45.656;11.302;2023-12-20T09:50:22;98063.84;;;19.04;44.58
33163;BME280;29282;45.656;11.302;2023-12-20T09:52:50;98064.19;;;19.02;44.26
33163;BME280;29282;45.656;11.302;2023-12-20T09:55:18;98068.88;;;19.02;44.27
33163;BME280;29282;45.656;11.302;2023-12-20T09:57:45;98064.19;;;19.02;44.46
33163;BME280;29282;45.656;11.302;2023-12-20T10:00:11;98068.50;;;19.04;44.22
33163;BME280;29282;45.656;11.302;2023-12-20T10:02:38;98067.81;;;19.07;44.29
33163;BME280;29282;45.656;11.302;2023-12-20T10:05:08;98068.88;;;19.02;44.54
33163;BME280;29282;45.656;11.302;2023-12-20T10:07:35;98063.84;;;19.04;44.48
33163;BME280;29282;45.656;11.302;2023-12-20T10:10:02;98056.72;;;19.03;44.49
33163;BME280;29282;45.656;11.302;2023-12-20T10:12:27;98050.44;;;19.02;44.44
33163;BME280;29282;45.656;11.302;2023-12-20T10:14:53;98056.72;;;19.03;44.50
33163;BME280;29282;45.656;11.302;2023-12-20T10:17:18;98054.34;;;19.01;44.52
33163;BME280;29282;45.656;11.302;2023-12-20T10:19:44;98041.06;;;19.04;44.27
33163;BME280;29282;45.656;11.302;2023-12-20T10:22:10;98032.38;;;19.01;44.30
33163;BME280;29282;45.656;11.302;2023-12-20T10:24:35;98026.78;;;18.98;44.35
33163;BME280;29282;45.656;11.302;2023-12-20T10:27:08;98026.09;;;19.01;44.56
33163;BME280;29282;45.656;11.302;2023-12-20T10:29:35;98024.38;;;18.96;44.67
33163;BME280;29282;45.656;11.302;2023-12-20T10:32:24;98034.53;;;18.96;44.59
33163;BME280;29282;45.656;11.302;2023-12-20T10:34:54;98038.88;;;18.97;44.58
33163;BME280;29282;45.656;11.302;2023-12-20T10:37:20;98038.44;;;18.95;44.53
33163;BME280;29282;45.656;11.302;2023-12-20T10:39:53;98034.06;;;18.94;44.73
33163;BME280;29282;45.656;11.302;2023-12-20T10:42:25;98032.84;;;18.91;44.74
33163;BME280;29282;45.656;11.302;2023-12-20T10:44:51;98032.84;;;18.91;44.84
33163;BME280;29282;45.656;11.302;2023-12-20T10:47:17;98015.56;;;18.91;44.87
33163;BME280;29282;45.656;11.302;2023-12-20T10:49:43;98008.94;;;18.92;44.74
33163;BME280;29282;45.656;11.302;2023-12-20T10:52:11;98010.41;;;18.89;44.95
33163;BME280;29282;45.656;11.302;2023-12-20T10:54:37;98006.41;;;18.87;44.74
33163;BME280;29282;45.656;11.302;2023-12-20T10:57:05;98009.63;;;18.89;44.78
33163;BME280;29282;45.656;11.302;2023-12-20T10:59:33;98015.44;;;18.87;45.04
33163;BME280;29282;45.656;11.302;2023-12-20T11:01:59;98010.78;;;18.88;44.86
33163;BME280;29282;45.656;11.302;2023-12-20T11:04:41;98011.91;;;18.87;44.86
33163;BME280;29282;45.656;11.302;2023-12-20T11:07:19;98013.75;;;18.83;44.97
33163;BME280;29282;45.656;11.302;2023-12-20T11:09:57;98017.38;;;18.87;44.80
33163;BME280;29282;45.656;11.302;2023-12-20T11:15:36;98016.94;;;18.85;44.87
33163;BME280;29282;45.656;11.302;2023-12-20T11:18:04;98007.78;;;18.81;45.09
33163;BME280;29282;45.656;11.302;2023-12-20T11:20:38;98001.97;;;18.82;45.04
33163;BME280;29282;45.656;11.302;2023-12-20T11:23:05;98000.38;;;18.81;44.95
33163;BME280;29282;45.656;11.302;2023-12-20T11:25:46;98003.44;;;18.80;44.83
33163;BME280;29282;45.656;11.302;2023-12-20T11:28:12;98006.97;;;18.80;44.93
33163;BME280;29282;45.656;11.302;2023-12-20T11:30:43;98004.59;;;18.78;44.94
33163;BME280;29282;45.656;11.302;2023-12-20T11:33:11;98006.06;;;18.76;44.97
33163;BME280;29282;45.656;11.302;2023-12-20T11:35:36;98000.94;;;18.74;44.95
33163;BME280;29282;45.656;11.302;2023-12-20T11:38:02;98002.44;;;18.72;45.24
33163;BME280;29282;45.656;11.302;2023-12-20T11:40:28;97995.63;;;18.69;45.38
33163;BME280;29282;45.656;11.302;2023-12-20T11:42:53;97998.75;;;18.68;45.36
33163;BME280;29282;45.656;11.302;2023-12-20T11:45:24;97988.88;;;18.67;45.31
33163;BME280;29282;45.656;11.302;2023-12-20T11:47:51;97985.34;;;18.66;45.42
33163;BME280;29282;45.656;11.302;2023-12-20T11:50:20;97986.94;;;18.67;45.71
33163;BME280;29282;45.656;11.302;2023-12-20T11:52:47;97989.69;;;18.67;45.89
33163;BME280;29282;45.656;11.302;2023-12-20T11:55:13;97993.38;;;18.71;45.75
33163;BME280;29282;45.656;11.302;2023-12-20T11:57:39;97980.91;;;18.74;45.56
33163;BME280;29282;45.656;11.302;2023-12-20T12:00:06;97984.22;;;18.80;45.58
33163;BME280;29282;45.656;11.302;2023-12-20T12:02:32;97976.91;;;18.84;45.46
33163;BME280;29282;45.656;11.302;2023-12-20T12:04:59;97977.84;;;18.88;45.40
33163;BME280;29282;45.656;11.302;2023-12-20T12:07:24;97979.31;;;18.97;45.43
33163;BME280;29282;45.656;11.302;2023-12-20T12:09:50;97963.75;;;19.01;45.18
33163;BME280;29282;45.656;11.302;2023-12-20T12:12:16;97967.50;;;19.09;45.08
33163;BME280;29282;45.656;11.302;2023-12-20T12:14:44;97975.16;;;19.16;45.06
33163;BME280;29282;45.656;11.302;2023-12-20T12:17:13;97965.66;;;19.13;45.28
33163;BME280;29282;45.656;11.302;2023-12-20T12:19:40;97967.00;;;19.19;45.19
33163;BME280;29282;45.656;11.302;2023-12-20T12:24:34;97953.38;;;19.23;45.82
33163;BME280;29282;45.656;11.302;2023-12-20T12:26:59;97950.31;;;19.24;46.20
33163;BME280;29282;45.656;11.302;2023-12-20T12:29:25;97945.00;;;19.32;46.52
33163;BME280;29282;45.656;11.302;2023-12-20T12:31:50;97946.56;;;19.45;46.63
33163;BME280;29282;45.656;11.302;2023-12-20T12:34:17;97945.59;;;19.53;47.11
33163;BME280;29282;45.656;11.302;2023-12-20T12:36:43;97951.47;;;19.52;47.27
33163;BME280;29282;45.656;11.302;2023-12-20T12:39:11;97951.66;;;19.59;48.47
33163;BME280;29282;45.656;11.302;2023-12-20T12:41:37;97946.47;;;19.69;48.82
33163;BME280;29282;45.656;11.302;2023-12-20T12:44:02;97940.88;;;19.66;49.16
33163;BME280;29282;45.656;11.302;2023-12-20T12:46:28;97939.97;;;19.62;49.62
33163;BME280;29282;45.656;11.302;2023-12-20T12:48:54;97936.19;;;19.66;50.56
33163;BME280;29282;45.656;11.302;2023-12-20T12:51:19;97918.28;;;19.73;50.43
33163;BME280;29282;45.656;11.302;2023-12-20T12:53:45;97916.41;;;19.77;51.32
33163;BME280;29282;45.656;11.302;2023-12-20T12:56:12;97932.91;;;19.77;50.68